KCTY/CTY METAR and TAF weather

Enter ICAO airport designator
Station Type Date Time Source
KCTY METAR 2018/12/10 18:55 UTC NOAA

KCTY 101855Z AUTO 36008G15KT 10SM OVC023 09/03 A3013 RMK AO2 T00860034


Station Type Date Time Source
KCTY Decoded METAR 2018/12/10 18:55 UTC NOAA

CROSS CITY AIRPORT, FL, United States (KCTY) 29-38N 083-06W 12M
Dec 10, 2018 - 01:55 PM EST / 2018.12.10 1855 UTC
Wind: from the N (360 degrees) at 9 MPH (8 KT) gusting to 17 MPH (15 KT):0
Visibility: 10 mile(s):0
Sky conditions: overcast
Temperature: 47.5 F (8.6 C)
Dew Point: 38.1 F (3.4 C)
Relative Humidity: 69%
Pressure (altimeter): 30.13 in. Hg (1020 hPa)
ob: KCTY 101855Z AUTO 36008G15KT 10SM OVC023 09/03 A3013 RMK AO2 T00860034
cycle: 19

Station Type Date Time Source
KCTY TAF UTC NOAA

Error!


Example: see airport list